createdAt,value
2023-04-01T00:02:22.633Z,75.39
2023-04-01T00:04:55.090Z,78.21
2023-04-01T00:07:27.287Z,79.08
2023-04-01T00:10:03.104Z,76.50
2023-04-01T00:12:35.351Z,78.09
2023-04-01T00:15:08.403Z,80.44
2023-04-01T00:17:43.836Z,83.99
2023-04-01T00:20:17.180Z,84.18
2023-04-01T00:22:49.693Z,81.23
2023-04-01T00:25:22.187Z,78.62
2023-04-01T00:27:54.394Z,81.05
2023-04-01T00:30:26.653Z,81.67
2023-04-01T00:33:01.485Z,83.93
2023-04-01T00:35:34.294Z,79.59
2023-04-01T00:38:07.741Z,74.44
2023-04-01T00:40:42.411Z,77.24
2023-04-01T00:43:19.485Z,83.80
2023-04-01T00:45:53.846Z,83.00
2023-04-01T00:48:34.436Z,90.05
2023-04-01T00:51:11.307Z,91.19
2023-04-01T00:53:48.272Z,96.27
2023-04-01T00:56:26.407Z,95.59
2023-04-01T00:59:06.242Z,94.53
2023-04-01T01:01:40.528Z,86.23
2023-04-01T01:04:27.626Z,86.65
2023-04-01T01:07:10.767Z,83.49
2023-04-01T01:09:54.081Z,81.79
2023-04-01T01:12:36.433Z,84.81
2023-04-01T01:15:22.028Z,85.72
2023-04-01T01:18:06.432Z,85.27
2023-04-01T01:21:18.764Z,84.66
2023-04-01T01:24:29.807Z,91.14
2023-04-01T01:27:10.984Z,87.71
2023-04-01T01:30:16.684Z,85.24
2023-04-01T01:33:11.787Z,92.16
2023-04-01T01:35:54.119Z,83.67
2023-04-01T01:38:29.440Z,83.10
2023-04-01T01:41:04.237Z,77.20
2023-04-01T01:43:43.578Z,67.89
2023-04-01T01:46:20.922Z,58.46
2023-04-01T01:48:56.451Z,50.54
2023-04-01T01:51:33.295Z,50.11
2023-04-01T01:54:05.485Z,49.10
2023-04-01T01:56:40.541Z,43.12
2023-04-01T01:59:16.484Z,40.49
2023-04-01T02:01:54.741Z,38.66
2023-04-01T02:04:28.313Z,41.46
2023-04-01T02:07:07.368Z,41.56
2023-04-01T02:09:40.359Z,37.83
2023-04-01T02:12:18.010Z,35.26
2023-04-01T02:14:57.037Z,36.25
2023-04-01T02:17:32.918Z,34.91
2023-04-01T02:20:11.925Z,32.55
2023-04-01T02:22:52.736Z,29.86
2023-04-01T02:25:32.203Z,31.31
2023-04-01T02:28:07.929Z,29.81
2023-04-01T02:30:44.312Z,29.86
2023-04-01T02:33:17.247Z,28.27
2023-04-01T02:35:49.897Z,31.81
2023-04-01T02:38:24.780Z,31.74
2023-04-01T02:41:03.708Z,34.53
2023-04-01T02:43:35.935Z,37.01
2023-04-01T02:46:08.547Z,32.46
2023-04-01T02:48:40.738Z,35.89
2023-04-01T02:51:13.963Z,37.47
2023-04-01T02:53:48.773Z,39.29
2023-04-01T02:56:21.309Z,39.32
2023-04-01T02:58:53.929Z,35.71
2023-04-01T03:01:27.166Z,33.91
2023-04-01T03:03:59.453Z,32.99
2023-04-01T03:06:31.950Z,32.05
2023-04-01T03:09:07.233Z,31.84
2023-04-01T03:11:39.467Z,29.04
2023-04-01T03:14:11.695Z,27.48
2023-04-01T03:16:43.973Z,27.86
2023-04-01T03:19:16.263Z,26.17
2023-04-01T03:21:48.491Z,26.31
2023-04-01T03:24:23.335Z,26.46
2023-04-01T03:26:55.784Z,26.39
2023-04-01T03:29:28.068Z,24.60
2023-04-01T03:32:00.707Z,26.90
2023-04-01T03:34:32.892Z,27.35
2023-04-01T03:37:05.401Z,30.26
2023-04-01T03:39:40.249Z,33.33
2023-04-01T03:42:12.524Z,36.94
2023-04-01T03:44:44.916Z,37.05
2023-04-01T03:47:17.106Z,38.79
2023-04-01T03:49:49.430Z,39.81
2023-04-01T03:52:21.645Z,39.14
2023-04-01T03:54:56.728Z,40.47
2023-04-01T03:57:29.415Z,43.19
2023-04-01T04:00:01.655Z,45.79
2023-04-01T04:02:33.932Z,46.76
2023-04-01T04:05:06.646Z,46.59
2023-04-01T04:07:39.829Z,48.67
2023-04-01T04:10:15.286Z,49.41
2023-04-01T04:12:47.586Z,49.77
2023-04-01T04:15:20.403Z,54.66
2023-04-01T04:17:52.943Z,51.12
2023-04-01T04:20:25.157Z,51.49
2023-04-01T04:22:57.385Z,52.18
2023-04-01T04:25:32.748Z,53.96
2023-04-01T04:28:05.165Z,49.83
2023-04-01T04:30:37.441Z,47.51
2023-04-01T04:33:10.159Z,45.21
2023-04-01T04:35:42.456Z,45.18
2023-04-01T04:38:14.701Z,45.13
2023-04-01T04:40:50.006Z,44.07
2023-04-01T04:43:24.926Z,44.04
2023-04-01T04:45:57.196Z,45.73
2023-04-01T04:48:29.431Z,46.21
2023-04-01T04:51:01.768Z,45.46
2023-04-01T04:53:34.003Z,46.30
2023-04-01T04:56:09.021Z,44.31
2023-04-01T04:58:41.445Z,42.84
2023-04-01T05:01:14.795Z,39.55
2023-04-01T05:03:48.069Z,37.16
2023-04-01T05:06:23.565Z,33.71
2023-04-01T05:08:55.972Z,32.12
2023-04-01T05:11:31.030Z,31.71
2023-04-01T05:14:03.247Z,32.07
2023-04-01T05:16:35.581Z,31.58
2023-04-01T05:19:07.741Z,36.37
2023-04-01T05:21:39.992Z,38.65
2023-04-01T05:24:13.371Z,40.68
2023-04-01T05:26:48.502Z,42.93
2023-04-01T05:29:20.739Z,44.08
2023-04-01T05:31:53.045Z,40.70
2023-04-01T05:34:25.446Z,41.40
2023-04-01T05:36:57.689Z,43.66
2023-04-01T05:39:30.243Z,39.65
2023-04-01T05:42:05.064Z,38.97
2023-04-01T05:44:37.304Z,37.53
2023-04-01T05:47:09.798Z,33.95
2023-04-01T05:49:42.120Z,31.80
2023-04-01T05:52:14.284Z,33.04
2023-04-01T05:54:46.746Z,29.19
2023-04-01T05:57:22.121Z,28.22
2023-04-01T05:59:54.559Z,26.84
2023-04-01T06:02:27.289Z,26.14
2023-04-01T06:05:15.099Z,24.49
2023-04-01T06:07:47.463Z,24.77
2023-04-01T06:10:22.072Z,25.72
2023-04-01T06:13:09.888Z,25.11
2023-04-01T06:15:53.887Z,25.24
2023-04-01T06:18:54.316Z,25.95
2023-04-01T06:22:08.939Z,28.11
2023-04-01T06:25:04.405Z,27.53
2023-04-01T06:27:55.675Z,29.69
2023-04-01T06:30:49.572Z,27.84
2023-04-01T06:33:51.429Z,26.28
2023-04-01T06:36:53.696Z,28.79
2023-04-01T06:39:53.546Z,27.26
2023-04-01T06:42:55.134Z,26.88
2023-04-01T06:45:41.810Z,25.39
2023-04-01T06:48:40.649Z,25.62
2023-04-01T06:51:24.952Z,24.24
2023-04-01T06:54:07.966Z,25.06
2023-04-01T06:56:47.550Z,21.58
2023-04-01T06:59:24.276Z,21.01
2023-04-01T07:02:00.554Z,20.83
2023-04-01T07:04:40.442Z,22.21
2023-04-01T07:07:26.294Z,21.59
2023-04-01T07:10:02.996Z,18.27
2023-04-01T07:12:45.079Z,19.93
2023-04-01T07:15:25.289Z,19.39
2023-04-01T07:18:03.592Z,20.81
2023-04-01T07:20:42.864Z,23.09
2023-04-01T07:23:25.922Z,25.20
2023-04-01T07:26:03.346Z,27.61
2023-04-01T07:28:37.769Z,29.28
2023-04-01T07:31:24.811Z,29.89
2023-04-01T07:34:08.115Z,29.38
2023-04-01T07:36:49.640Z,29.29
2023-04-01T07:39:37.960Z,28.77
2023-04-01T07:42:20.915Z,28.06
2023-04-01T07:45:06.766Z,28.82
2023-04-01T07:48:05.480Z,28.86
2023-04-01T07:50:47.843Z,28.95
2023-04-01T07:53:36.557Z,30.16
2023-04-01T07:56:15.034Z,31.45
2023-04-01T07:59:02.324Z,31.41
2023-04-01T08:01:44.884Z,32.51
2023-04-01T08:04:43.331Z,33.98
2023-04-01T08:07:22.964Z,33.76
2023-04-01T08:10:07.461Z,34.36
2023-04-01T08:12:52.971Z,33.80
2023-04-01T08:15:31.647Z,34.34
2023-04-01T08:18:16.360Z,36.26
2023-04-01T08:20:55.474Z,35.31
2023-04-01T08:23:32.170Z,36.99
2023-04-01T08:26:15.677Z,37.46
2023-04-01T08:28:56.480Z,39.81
2023-04-01T08:31:36.963Z,39.88
2023-04-01T08:34:19.481Z,37.05
2023-04-01T08:36:57.493Z,36.10
2023-04-01T08:39:37.605Z,36.12
2023-04-01T08:42:51.395Z,36.94
2023-04-01T08:45:45.551Z,36.62
2023-04-01T08:48:50.572Z,38.85
2023-04-01T08:51:59.160Z,38.04
2023-04-01T08:55:07.344Z,39.67
2023-04-01T08:58:02.540Z,37.91
2023-04-01T09:00:41.254Z,37.76
2023-04-01T09:03:39.547Z,39.22
2023-04-01T09:06:30.455Z,37.08
2023-04-01T09:09:31.027Z,37.44
2023-04-01T09:12:28.712Z,38.01
2023-04-01T09:15:42.667Z,35.79
2023-04-01T09:18:54.207Z,31.71
2023-04-01T09:21:52.665Z,30.04
2023-04-01T09:24:56.854Z,30.26
2023-04-01T09:27:34.553Z,27.39
2023-04-01T09:30:37.973Z,28.10
2023-04-01T09:33:42.436Z,29.94
2023-04-01T09:36:37.999Z,34.41
2023-04-01T09:39:39.838Z,35.30
2023-04-01T09:42:30.180Z,34.87
2023-04-01T09:45:05.318Z,36.84
2023-04-01T09:47:59.431Z,38.33
2023-04-01T09:50:47.899Z,41.67
2023-04-01T09:53:41.650Z,41.57
2023-04-01T09:56:47.333Z,44.86
2023-04-01T09:59:55.793Z,44.24
2023-04-01T10:03:03.424Z,49.87
2023-04-01T10:06:08.824Z,51.93
2023-04-01T10:09:28.267Z,57.30
2023-04-01T10:12:38.070Z,56.48
2023-04-01T10:15:39.630Z,55.13
2023-04-01T10:18:44.314Z,54.51
2023-04-01T10:21:51.224Z,55.41
2023-04-01T10:25:08.767Z,54.10
2023-04-01T10:28:05.983Z,52.99
2023-04-01T10:31:08.775Z,52.84
2023-04-01T10:34:10.581Z,49.99
2023-04-01T10:36:59.230Z,49.28
2023-04-01T10:40:04.255Z,49.80
2023-04-01T10:43:14.562Z,56.43
2023-04-01T10:46:34.313Z,52.69
2023-04-01T10:49:57.056Z,50.28
2023-04-01T10:53:07.420Z,46.92
2023-04-01T10:56:10.432Z,44.94
2023-04-01T10:59:15.258Z,42.98
2023-04-01T11:02:28.830Z,41.12
2023-04-01T11:05:31.613Z,44.70
2023-04-01T11:08:39.645Z,37.59
2023-04-01T11:11:49.944Z,39.23
2023-04-01T11:14:57.949Z,34.82
2023-04-01T11:18:09.472Z,23.52
2023-04-01T11:21:12.600Z,18.75
2023-04-01T11:24:18.327Z,17.90
2023-04-01T11:27:08.785Z,18.46
2023-04-01T11:30:15.529Z,21.32
2023-04-01T11:32:57.806Z,22.45
2023-04-01T11:36:09.129Z,22.53
2023-04-01T11:39:12.901Z,20.06
2023-04-01T11:41:57.864Z,21.15
2023-04-01T11:44:32.732Z,16.82
2023-04-01T11:47:41.494Z,15.08
2023-04-01T11:50:31.266Z,13.08
2023-04-01T11:53:34.875Z,12.91
2023-04-01T11:56:26.439Z,14.70
2023-04-01T11:59:32.159Z,13.16
2023-04-01T12:02:16.324Z,14.39
2023-04-01T12:05:09.468Z,15.77
2023-04-01T12:08:09.051Z,19.31
2023-04-01T12:10:53.510Z,24.91
2023-04-01T12:13:41.626Z,27.66
2023-04-01T12:16:34.583Z,31.54
2023-04-01T12:19:20.520Z,34.86
2023-04-01T12:22:13.219Z,37.15
2023-04-01T12:24:51.956Z,38.49
2023-04-01T12:27:44.438Z,40.02
2023-04-01T12:30:52.595Z,42.58
2023-04-01T12:33:52.860Z,47.19
2023-04-01T12:36:45.743Z,51.44
2023-04-01T12:39:41.521Z,56.38
2023-04-01T12:42:35.090Z,57.55
2023-04-01T12:45:33.698Z,59.77
2023-04-01T12:48:31.855Z,62.44
2023-04-01T12:51:34.303Z,65.76
2023-04-01T12:54:50.911Z,69.10
2023-04-01T12:57:38.875Z,70.76
2023-04-01T13:00:36.578Z,70.78
2023-04-01T13:03:37.866Z,68.12
2023-04-01T13:06:45.725Z,69.89
2023-04-01T13:09:36.819Z,68.29
2023-04-01T13:12:41.513Z,63.90
2023-04-01T13:15:31.706Z,65.17
2023-04-01T13:18:19.735Z,61.01
2023-04-01T13:21:07.219Z,52.88
2023-04-01T13:23:55.017Z,44.12
2023-04-01T13:26:39.708Z,44.87
2023-04-01T13:29:20.184Z,48.45
2023-04-01T13:32:10.801Z,45.58
2023-04-01T13:35:00.475Z,45.18
2023-04-01T13:37:54.540Z,43.43
2023-04-01T13:40:52.373Z,44.49
2023-04-01T13:43:41.070Z,41.94
2023-04-01T13:46:40.456Z,39.84
2023-04-01T13:49:42.284Z,31.29
2023-04-01T13:52:36.583Z,30.17
2023-04-01T13:55:32.576Z,33.34
2023-04-01T13:58:29.526Z,31.86
2023-04-01T14:01:15.638Z,31.81
2023-04-01T14:04:26.152Z,30.15
2023-04-01T14:07:13.952Z,33.06
2023-04-01T14:10:04.153Z,33.99
2023-04-01T14:12:47.637Z,34.01
2023-04-01T14:15:45.403Z,38.56
2023-04-01T14:18:43.186Z,38.39
2023-04-01T14:21:38.286Z,40.30
2023-04-01T14:24:42.327Z,42.00
2023-04-01T14:27:55.866Z,39.81
2023-04-01T14:30:48.716Z,40.64
2023-04-01T14:33:46.775Z,39.22
2023-04-01T14:36:39.618Z,36.27
2023-04-01T14:39:42.484Z,35.59
2023-04-01T14:42:44.111Z,37.05
2023-04-01T14:45:45.882Z,36.75
2023-04-01T14:48:30.574Z,36.63
2023-04-01T14:51:15.006Z,33.25
2023-04-01T14:53:58.605Z,36.64
2023-04-01T14:56:46.325Z,37.21
2023-04-01T14:59:32.634Z,34.19
2023-04-01T15:02:17.817Z,36.38
2023-04-01T15:05:01.068Z,38.69
2023-04-01T15:08:05.916Z,39.43
2023-04-01T15:11:03.719Z,38.23
2023-04-01T15:14:09.480Z,40.09
2023-04-01T15:16:56.364Z,37.71
2023-04-01T15:19:43.552Z,38.31
2023-04-01T15:22:42.973Z,36.21
2023-04-01T15:25:41.016Z,36.87
2023-04-01T15:28:27.160Z,37.19
2023-04-01T15:31:09.011Z,36.29
2023-04-01T15:34:00.766Z,34.11
2023-04-01T15:36:45.186Z,32.43
2023-04-01T15:39:24.953Z,35.33
2023-04-01T15:42:20.754Z,32.84
2023-04-01T15:45:16.949Z,33.49
2023-04-01T15:48:00.125Z,32.51
2023-04-01T15:50:57.940Z,31.71
2023-04-01T15:54:08.087Z,31.51
2023-04-01T15:56:58.875Z,28.33
2023-04-01T15:59:59.575Z,26.04
2023-04-01T16:02:43.053Z,26.13
2023-04-01T16:05:39.605Z,28.19
2023-04-01T16:08:34.656Z,28.28
2023-04-01T16:11:25.623Z,30.16
2023-04-01T16:14:14.200Z,29.62
2023-04-01T16:17:06.995Z,32.99
2023-04-01T16:19:57.798Z,34.08
2023-04-01T16:22:37.587Z,37.28
2023-04-01T16:25:36.271Z,34.70
2023-04-01T16:28:27.172Z,32.92
2023-04-01T16:31:04.912Z,32.69
2023-04-01T16:33:52.277Z,33.25
2023-04-01T16:36:33.769Z,42.52
2023-04-01T16:39:42.252Z,44.90
2023-04-01T16:42:36.753Z,45.44
2023-04-01T16:45:31.551Z,43.92
2023-04-01T16:48:17.311Z,42.17
2023-04-01T16:51:00.564Z,42.07
2023-04-01T16:53:46.331Z,45.11
2023-04-01T16:56:26.793Z,43.57
2023-04-01T16:59:08.760Z,46.74
2023-04-01T17:01:52.424Z,42.75
2023-04-01T17:04:35.490Z,37.39
2023-04-01T17:07:29.241Z,38.45
2023-04-01T17:10:26.181Z,39.92
2023-04-01T17:13:20.407Z,39.50
2023-04-01T17:16:04.799Z,38.29
2023-04-01T17:18:50.109Z,39.69
2023-04-01T17:21:30.461Z,39.87
2023-04-01T17:24:29.002Z,38.94
2023-04-01T17:27:20.155Z,38.89
2023-04-01T17:30:22.315Z,40.91
2023-04-01T17:33:11.513Z,38.51
2023-04-01T17:35:57.949Z,37.83
2023-04-01T17:39:02.141Z,36.56
2023-04-01T17:41:51.970Z,36.19
2023-04-01T17:44:39.945Z,37.11
2023-04-01T17:47:31.605Z,36.62
2023-04-01T17:50:27.943Z,37.02
2023-04-01T17:53:19.234Z,36.04
2023-04-01T17:56:10.038Z,38.18
2023-04-01T17:58:51.611Z,39.83
2023-04-01T18:01:48.494Z,41.54
2023-04-01T18:04:41.649Z,42.91
2023-04-01T18:07:38.915Z,44.94
2023-04-01T18:10:27.068Z,42.64
2023-04-01T18:13:32.846Z,44.13
2023-04-01T18:16:23.900Z,43.06
2023-04-01T18:19:07.699Z,44.61
2023-04-01T18:21:49.532Z,45.36
2023-04-01T18:24:29.908Z,49.10
2023-04-01T18:27:28.362Z,53.17
2023-04-01T18:30:07.188Z,47.74
2023-04-01T18:32:52.993Z,50.64
2023-04-01T18:35:34.935Z,53.11
2023-04-01T18:38:17.200Z,52.80
2023-04-01T18:40:59.243Z,53.03
2023-04-01T18:43:58.855Z,51.48
2023-04-01T18:46:44.029Z,52.14
2023-04-01T18:49:34.101Z,51.51
2023-04-01T18:52:20.796Z,53.66
2023-04-01T18:55:14.059Z,52.24
2023-04-01T18:57:54.297Z,51.23
2023-04-01T19:00:30.546Z,50.89
2023-04-01T19:03:11.596Z,48.04
2023-04-01T19:05:50.932Z,49.31
2023-04-01T19:08:31.743Z,49.22
2023-04-01T19:11:14.906Z,49.65
2023-04-01T19:14:01.233Z,49.94
2023-04-01T19:16:48.671Z,45.69
2023-04-01T19:19:53.816Z,47.44
2023-04-01T19:22:44.259Z,46.56
2023-04-01T19:25:40.902Z,47.01
2023-04-01T19:28:36.691Z,49.35
2023-04-01T19:31:25.482Z,48.78
2023-04-01T19:34:14.195Z,48.52
2023-04-01T19:36:54.307Z,49.54
2023-04-01T19:39:50.010Z,53.81
2023-04-01T19:42:36.729Z,52.61
2023-04-01T19:45:30.963Z,53.51
2023-04-01T19:48:16.759Z,52.99
2023-04-01T19:50:58.010Z,54.31
2023-04-01T19:53:42.216Z,55.35
2023-04-01T19:56:23.689Z,53.46
2023-04-01T19:59:03.143Z,59.82
2023-04-01T20:01:45.743Z,64.56
2023-04-01T20:04:25.506Z,61.70
2023-04-01T20:07:05.694Z,65.94
2023-04-01T20:10:04.383Z,66.34
2023-04-01T20:12:52.762Z,69.16
2023-04-01T20:15:37.075Z,72.48
2023-04-01T20:18:23.866Z,74.41
2023-04-01T20:21:04.539Z,74.22
2023-04-01T20:23:47.704Z,75.23
2023-04-01T20:26:28.147Z,76.99
2023-04-01T20:29:23.816Z,79.50
2023-04-01T20:32:10.778Z,83.05
2023-04-01T20:35:00.467Z,78.85
2023-04-01T20:37:44.844Z,81.38
2023-04-01T20:40:38.837Z,81.09
2023-04-01T20:43:47.805Z,83.19
2023-04-01T20:46:29.483Z,81.30
2023-04-01T20:49:33.796Z,81.66
2023-04-01T20:52:22.515Z,81.66
2023-04-01T20:55:21.333Z,77.21
2023-04-01T20:58:14.957Z,78.49
2023-04-01T21:01:02.850Z,77.14
2023-04-01T21:03:53.793Z,76.33
2023-04-01T21:06:50.870Z,75.38
2023-04-01T21:09:45.405Z,74.07
2023-04-01T21:12:35.687Z,73.74
2023-04-01T21:15:36.972Z,70.51
2023-04-01T21:18:51.691Z,70.58
2023-04-01T21:21:57.131Z,69.61
2023-04-01T21:25:07.446Z,70.33
2023-04-01T21:27:57.761Z,68.96
2023-04-01T21:30:52.622Z,70.02
2023-04-01T21:33:58.632Z,68.25
2023-04-01T21:36:57.529Z,67.84
2023-04-01T21:39:56.235Z,70.01
2023-04-01T21:42:41.312Z,71.24
2023-04-01T21:45:50.076Z,72.31
2023-04-01T21:48:49.253Z,72.64
2023-04-01T21:52:15.483Z,74.06
2023-04-01T21:55:34.206Z,72.58
2023-04-01T21:58:51.506Z,73.59
2023-04-01T22:01:52.368Z,75.56
2023-04-01T22:04:48.920Z,77.19
2023-04-01T22:07:28.005Z,78.69
2023-04-01T22:10:14.700Z,76.32
2023-04-01T22:12:57.694Z,77.87
2023-04-01T22:15:38.624Z,79.28
2023-04-01T22:18:23.339Z,77.65
2023-04-01T22:21:06.397Z,76.52
2023-04-01T22:23:51.817Z,77.96
2023-04-01T22:26:33.391Z,74.92
2023-04-01T22:29:14.471Z,76.04
2023-04-01T22:31:54.282Z,75.74
2023-04-01T22:34:39.245Z,76.80
2023-04-01T22:37:20.240Z,75.76
2023-04-01T22:40:14.873Z,77.52
2023-04-01T22:42:50.204Z,76.86
2023-04-01T22:45:49.401Z,77.69
2023-04-01T22:48:34.157Z,80.90
2023-04-01T22:51:17.486Z,84.74
2023-04-01T22:54:07.331Z,86.14
2023-04-01T22:56:47.765Z,87.66
2023-04-01T22:59:28.953Z,89.20
2023-04-01T23:02:08.755Z,87.92
2023-04-01T23:04:47.155Z,90.34
2023-04-01T23:07:48.078Z,90.59
2023-04-01T23:10:30.119Z,92.94
2023-04-01T23:13:09.759Z,90.89
2023-04-01T23:15:43.585Z,94.89
2023-04-01T23:18:26.870Z,95.55
2023-04-01T23:21:11.754Z,94.39
2023-04-01T23:24:07.493Z,96.02
2023-04-01T23:26:51.344Z,96.78
2023-04-01T23:29:29.087Z,94.00
2023-04-01T23:32:05.720Z,95.17
2023-04-01T23:34:41.269Z,92.31
2023-04-01T23:37:18.867Z,95.68
2023-04-01T23:39:53.996Z,99.53
2023-04-01T23:42:30.860Z,102.59
2023-04-01T23:45:09.384Z,102.96
2023-04-01T23:47:45.205Z,102.84
2023-04-01T23:50:22.890Z,107.10
2023-04-01T23:53:13.297Z,107.16
2023-04-01T23:55:47.396Z,103.92
2023-04-01T23:58:27.438Z,106.59
